Waimes, Belgium
Current Conditions -  °F | °C
As of 9:48 PM on Saturday 20 Dec 2014 (Local Time) from EBLB Reporting Station
Broken Clouds Broken Clouds  
Wind Chill: 27°   Ceiling: 4500
Heat Index: 37°   Visibility: 6mi
Dew Point: 36°   Wind: 18mph
Humidity: 93%   Direction: 310°NW
Pressure: 30.3"   Gusts: NA
Location:  50.41°N, 6.11°E
Report Text: EBLB 202048Z AUTO 31016KT 9999 FEW008/// SCT013/// BKN045/// 03/02 Q1026 GRN
Loading
Personal Weather Stations






























Interactive Weather Map New forecast layout! Learn more

10-Day Weather Forecast

Advertisements
Track Severe Weather on mobile